createdAt,value
2018-06-19T00:01:50.782Z,3.90
2018-06-19T00:04:19.277Z,5.30
2018-06-19T00:06:47.538Z,5.10
2018-06-19T00:09:15.794Z,5.63
2018-06-19T00:11:44.191Z,4.53
2018-06-19T00:14:12.327Z,5.03
2018-06-19T00:16:40.634Z,4.43
2018-06-19T00:19:09.040Z,4.40
2018-06-19T00:21:40.064Z,4.13
2018-06-19T00:24:08.775Z,5.80
2018-06-19T00:26:37.147Z,4.90
2018-06-19T00:29:05.285Z,6.20
2018-06-19T00:31:33.649Z,4.83
2018-06-19T00:34:01.749Z,4.40
2018-06-19T00:36:29.807Z,4.57
2018-06-19T00:38:58.143Z,4.87
2018-06-19T00:41:26.266Z,4.00
2018-06-19T00:43:54.382Z,6.37
2018-06-19T00:46:25.200Z,4.60
2018-06-19T00:48:53.371Z,4.70
2018-06-19T00:51:21.434Z,5.30
2018-06-19T00:53:49.697Z,5.67
2018-06-19T00:56:29.215Z,4.57
2018-06-19T00:58:57.255Z,4.77
2018-06-19T01:01:25.611Z,4.60
2018-06-19T01:03:53.688Z,4.55
2018-06-19T01:06:21.783Z,7.10
2018-06-19T01:08:50.050Z,7.30
2018-06-19T01:11:18.418Z,5.10
2018-06-19T01:13:47.540Z,5.20
2018-06-19T01:16:15.619Z,5.50
2018-06-19T01:18:43.691Z,4.30
2018-06-19T01:21:11.835Z,4.83
2018-06-19T01:23:40.006Z,4.97
2018-06-19T01:26:09.478Z,5.37
2018-06-19T01:28:37.585Z,4.87
2018-06-19T01:31:05.857Z,4.70
2018-06-19T01:33:33.987Z,5.20
2018-06-19T01:36:02.075Z,4.60
2018-06-19T01:38:30.157Z,4.47
2018-06-19T01:40:58.569Z,5.33
2018-06-19T01:43:26.655Z,4.62
2018-06-19T01:45:54.771Z,4.45
2018-06-19T01:48:22.818Z,4.80
2018-06-19T01:50:50.889Z,4.73
2018-06-19T01:53:19.826Z,5.42
2018-06-19T01:55:47.904Z,5.13
2018-06-19T01:58:16.098Z,5.00
2018-06-19T02:00:44.367Z,4.57
2018-06-19T02:03:12.439Z,4.93
2018-06-19T02:05:40.826Z,4.70
2018-06-19T02:08:09.080Z,5.40
2018-06-19T02:10:37.317Z,8.97
2018-06-19T02:13:05.458Z,6.28
2018-06-19T02:15:33.626Z,5.40
2018-06-19T02:18:01.823Z,4.92
2018-06-19T02:20:29.874Z,4.95
2018-06-19T02:22:58.070Z,6.60
2018-06-19T02:25:26.149Z,5.90
2018-06-19T02:27:54.279Z,5.78
2018-06-19T02:30:22.359Z,5.10
2018-06-19T02:32:50.574Z,5.30
2018-06-19T02:35:18.861Z,5.13
2018-06-19T02:37:46.957Z,4.73
2018-06-19T02:40:15.063Z,5.43
2018-06-19T02:42:43.371Z,4.83
2018-06-19T02:45:11.459Z,7.70
2018-06-19T02:47:39.731Z,5.23
2018-06-19T02:50:07.849Z,4.53
2018-06-19T02:52:35.908Z,6.28
2018-06-19T02:55:04.040Z,5.85
2018-06-19T02:57:32.190Z,5.00
2018-06-19T03:00:00.268Z,5.13
2018-06-19T03:02:28.346Z,4.57
2018-06-19T03:04:56.426Z,6.30
2018-06-19T03:07:24.728Z,5.25
2018-06-19T03:09:52.844Z,5.00
2018-06-19T03:12:20.924Z,5.70
2018-06-19T03:14:49.180Z,6.00
2018-06-19T03:17:17.535Z,4.27
2018-06-19T03:19:45.642Z,4.80
2018-06-19T03:22:13.727Z,6.40
2018-06-19T03:24:41.888Z,4.93
2018-06-19T03:27:10.053Z,6.13
2018-06-19T03:29:38.938Z,5.35
2018-06-19T03:32:07.078Z,6.30
2018-06-19T03:34:35.199Z,5.53
2018-06-19T03:37:03.312Z,5.75
2018-06-19T03:39:31.451Z,6.07
2018-06-19T03:41:59.664Z,5.67
2018-06-19T03:44:27.782Z,5.37
2018-06-19T03:46:55.865Z,6.00
2018-06-19T03:49:23.975Z,6.47
2018-06-19T03:51:52.071Z,7.00
2018-06-19T03:54:20.559Z,5.75
2018-06-19T03:56:48.641Z,5.87
2018-06-19T03:59:16.726Z,6.13
2018-06-19T04:01:44.836Z,5.60
2018-06-19T04:04:12.871Z,5.80
2018-06-19T04:06:41.286Z,5.67
2018-06-19T04:09:09.365Z,7.03
2018-06-19T04:11:37.919Z,5.67
2018-06-19T04:14:05.993Z,5.70
2018-06-19T04:16:34.207Z,5.53
2018-06-19T04:19:02.287Z,5.83
2018-06-19T04:21:30.659Z,5.97
2018-06-19T04:23:58.942Z,4.93
2018-06-19T04:26:27.019Z,5.25
2018-06-19T04:28:55.798Z,5.70
2018-06-19T04:31:23.916Z,5.90
2018-06-19T04:33:52.056Z,6.30
2018-06-19T04:36:20.668Z,6.00
2018-06-19T04:38:48.876Z,6.30
2018-06-19T04:41:17.094Z,6.40
2018-06-19T04:43:45.266Z,5.17
2018-06-19T04:46:13.566Z,6.63
2018-06-19T04:48:41.647Z,5.47
2018-06-19T04:51:09.731Z,5.80
2018-06-19T04:53:37.830Z,5.30
2018-06-19T04:56:05.976Z,6.43
2018-06-19T04:58:34.047Z,5.90
2018-06-19T05:01:02.123Z,5.50
2018-06-19T05:03:30.247Z,5.17
2018-06-19T05:05:58.393Z,5.73
2018-06-19T05:08:26.786Z,6.10
2018-06-19T05:10:54.895Z,6.20
2018-06-19T05:13:23.011Z,5.00
2018-06-19T05:15:51.107Z,5.13
2018-06-19T05:18:19.378Z,5.83
2018-06-19T05:20:47.458Z,4.90
2018-06-19T05:23:15.676Z,5.20
2018-06-19T05:25:43.838Z,5.20
2018-06-19T05:28:11.975Z,5.30
2018-06-19T05:30:40.416Z,5.17
2018-06-19T05:33:10.419Z,4.80
2018-06-19T05:35:38.630Z,5.33
2018-06-19T05:38:06.721Z,4.63
2018-06-19T05:40:34.836Z,5.08
2018-06-19T05:43:02.979Z,5.58
2018-06-19T05:45:31.163Z,5.17
2018-06-19T05:47:59.536Z,5.08
2018-06-19T05:50:27.790Z,6.63
2018-06-19T05:52:56.193Z,4.83
2018-06-19T05:55:24.454Z,4.83
2018-06-19T05:57:52.600Z,4.67
2018-06-19T06:00:28.917Z,7.25
2018-06-19T06:03:00.607Z,4.47
2018-06-19T06:05:28.781Z,4.10
2018-06-19T06:07:57.113Z,4.67
2018-06-19T06:10:25.474Z,5.10
2018-06-19T06:12:53.572Z,5.57
2018-06-19T06:15:21.946Z,7.00
2018-06-19T06:17:51.298Z,5.10
2018-06-19T06:20:19.399Z,4.80
2018-06-19T06:22:47.614Z,5.33
2018-06-19T06:25:15.760Z,5.03
2018-06-19T06:27:43.939Z,5.60
2018-06-19T06:30:12.022Z,5.50
2018-06-19T06:32:40.099Z,5.53
2018-06-19T06:35:08.219Z,5.25
2018-06-19T06:37:36.416Z,6.00
2018-06-19T06:40:04.697Z,5.00
2018-06-19T06:42:32.814Z,4.83
2018-06-19T06:45:01.115Z,5.53
2018-06-19T06:47:29.299Z,5.10
2018-06-19T06:49:57.362Z,5.37
2018-06-19T06:52:25.621Z,4.60
2018-06-19T06:54:53.798Z,4.83
2018-06-19T06:57:21.943Z,6.20
2018-06-19T06:59:50.081Z,4.00
2018-06-19T07:02:18.293Z,4.77
2018-06-19T07:04:46.407Z,4.60
2018-06-19T07:07:14.679Z,4.43
2018-06-19T07:09:42.787Z,7.17
2018-06-19T07:12:11.008Z,4.60
2018-06-19T07:14:39.132Z,4.60
2018-06-19T07:17:07.507Z,4.08
2018-06-19T07:19:35.693Z,4.50
2018-06-19T07:22:03.858Z,4.57
2018-06-19T07:24:31.930Z,4.08
2018-06-19T07:27:00.545Z,4.50
2018-06-19T07:29:28.690Z,4.47
2018-06-19T07:31:56.796Z,4.70
2018-06-19T07:34:24.969Z,4.30
2018-06-19T07:36:53.188Z,4.70
2018-06-19T07:39:21.683Z,3.83
2018-06-19T07:41:50.720Z,3.80
2018-06-19T07:44:18.799Z,5.40
2018-06-19T07:46:46.918Z,3.40
2018-06-19T07:49:15.067Z,6.80
2018-06-19T07:51:43.182Z,3.60
2018-06-19T07:54:11.390Z,3.77
2018-06-19T07:56:39.972Z,5.57
2018-06-19T07:59:08.128Z,3.97
2018-06-19T08:01:36.278Z,2.75
2018-06-19T08:04:05.628Z,3.70
2018-06-19T08:06:33.983Z,3.73
2018-06-19T08:09:02.079Z,6.28
2018-06-19T08:11:30.294Z,3.47
2018-06-19T08:13:58.340Z,4.05
2018-06-19T08:16:26.438Z,3.27
2018-06-19T08:18:54.616Z,3.00
2018-06-19T08:21:22.994Z,3.67
2018-06-19T08:23:51.951Z,3.72
2018-06-19T08:26:20.539Z,3.00
2018-06-19T08:28:48.671Z,2.70
2018-06-19T08:31:16.910Z,3.12
2018-06-19T08:33:44.948Z,3.90
2018-06-19T08:36:13.084Z,5.00
2018-06-19T08:38:42.428Z,3.03
2018-06-19T08:41:10.603Z,3.10
2018-06-19T08:43:38.761Z,2.80
2018-06-19T08:46:06.827Z,4.00
2018-06-19T08:48:35.001Z,4.72
2018-06-19T08:51:03.126Z,3.17
2018-06-19T08:53:31.302Z,2.90
2018-06-19T08:55:59.394Z,3.83
2018-06-19T08:58:27.466Z,3.00
2018-06-19T09:00:56.644Z,4.73
2018-06-19T09:03:24.793Z,2.03
2018-06-19T09:05:52.873Z,2.83
2018-06-19T09:08:21.239Z,2.47
2018-06-19T09:10:49.310Z,3.90
2018-06-19T09:13:18.308Z,2.43
2018-06-19T09:15:46.495Z,2.50
2018-06-19T09:18:14.871Z,4.07
2018-06-19T09:20:43.110Z,3.20
2018-06-19T09:23:11.386Z,2.50
2018-06-19T09:25:39.479Z,2.60
2018-06-19T09:28:07.635Z,2.53
2018-06-19T09:30:36.538Z,2.70
2018-06-19T09:33:04.911Z,3.95
2018-06-19T09:35:33.112Z,2.40
2018-06-19T09:38:01.400Z,4.00
2018-06-19T09:40:29.511Z,2.50
2018-06-19T09:42:57.634Z,3.57
2018-06-19T09:45:25.747Z,3.60
2018-06-19T09:47:53.932Z,2.10
2018-06-19T09:50:22.332Z,2.80
2018-06-19T09:52:50.431Z,3.47
2018-06-19T09:55:18.520Z,5.60
2018-06-19T09:57:46.687Z,2.97
2018-06-19T10:00:49.357Z,2.50
2018-06-19T10:03:17.645Z,4.10
2018-06-19T10:05:45.866Z,2.60
2018-06-19T10:08:25.090Z,2.67
2018-06-19T10:11:09.991Z,1.95
2018-06-19T10:13:38.299Z,5.08
2018-06-19T10:16:06.385Z,2.23
2018-06-19T10:18:34.627Z,3.72
2018-06-19T10:21:02.940Z,2.17
2018-06-19T10:23:31.050Z,2.53
2018-06-19T10:25:59.172Z,1.90
2018-06-19T10:28:27.212Z,1.60
2018-06-19T10:30:55.443Z,1.77
2018-06-19T10:33:23.614Z,1.50
2018-06-19T10:35:52.394Z,1.63
2018-06-19T10:38:20.490Z,1.63
2018-06-19T10:40:48.611Z,2.50
2018-06-19T10:43:16.744Z,1.63
2018-06-19T10:45:44.842Z,1.70
2018-06-19T10:48:14.363Z,3.60
2018-06-19T10:50:42.592Z,1.70
2018-06-19T10:53:10.716Z,2.33
2018-06-19T10:55:38.790Z,1.30
2018-06-19T10:58:07.047Z,1.40
2018-06-19T11:00:35.125Z,3.72
2018-06-19T11:03:03.317Z,1.35
2018-06-19T11:05:31.424Z,2.10
2018-06-19T11:07:59.495Z,2.70
2018-06-19T11:10:27.827Z,2.00
2018-06-19T11:12:55.933Z,2.70
2018-06-19T11:15:24.109Z,1.50
2018-06-19T11:17:52.658Z,1.20
2018-06-19T11:20:20.850Z,1.13
2018-06-19T11:22:48.911Z,1.27
2018-06-19T11:25:16.987Z,1.27
2018-06-19T11:27:45.092Z,1.30
2018-06-19T11:30:13.255Z,1.73
2018-06-19T11:32:41.447Z,1.00
2018-06-19T11:35:09.514Z,2.08
2018-06-19T11:37:37.596Z,1.15
2018-06-19T11:40:05.658Z,1.10
2018-06-19T11:42:33.744Z,1.20
2018-06-19T11:45:01.823Z,1.57
2018-06-19T11:47:30.074Z,2.23
2018-06-19T11:49:58.141Z,2.75
2018-06-19T11:52:26.255Z,2.13
2018-06-19T11:54:55.264Z,3.43
2018-06-19T11:57:23.460Z,1.50
2018-06-19T11:59:51.582Z,1.77
2018-06-19T12:02:19.678Z,1.20
2018-06-19T12:04:47.796Z,1.43
2018-06-19T12:07:15.871Z,1.33
2018-06-19T12:09:44.108Z,0.80
2018-06-19T12:12:12.278Z,1.27
2018-06-19T12:14:40.368Z,2.00
2018-06-19T12:17:08.765Z,1.47
2018-06-19T12:19:36.845Z,1.30
2018-06-19T12:22:04.938Z,0.80
2018-06-19T12:24:33.563Z,1.45
2018-06-19T12:27:01.643Z,1.53
2018-06-19T12:29:29.730Z,1.10
2018-06-19T12:31:57.827Z,1.63
2018-06-19T12:34:25.922Z,1.80
2018-06-19T12:36:54.063Z,1.10
2018-06-19T12:39:23.131Z,2.08
2018-06-19T12:41:51.226Z,1.60
2018-06-19T12:44:19.324Z,0.80
2018-06-19T12:46:47.619Z,1.80
2018-06-19T12:50:23.939Z,2.30
2018-06-19T12:53:04.345Z,1.75
2018-06-19T12:55:43.940Z,1.13
2018-06-19T12:58:12.152Z,1.70
2018-06-19T13:00:40.254Z,1.87
2018-06-19T13:03:19.711Z,2.33
2018-06-19T13:05:59.201Z,3.03
2018-06-19T13:08:27.275Z,1.57
2018-06-19T13:10:55.350Z,3.77
2018-06-19T13:13:35.066Z,1.87
2018-06-19T13:16:03.261Z,1.92
2018-06-19T13:18:43.310Z,2.10
2018-06-19T13:21:11.485Z,2.03
2018-06-19T13:23:39.672Z,1.82
2018-06-19T13:26:07.886Z,2.67
2018-06-19T13:30:05.203Z,1.23
2018-06-19T13:32:33.984Z,3.07
2018-06-19T13:35:03.391Z,2.03
2018-06-19T13:37:31.501Z,1.83
2018-06-19T13:41:11.529Z,2.27
2018-06-19T13:43:50.887Z,2.72
2018-06-19T13:46:19.031Z,5.17
2018-06-19T13:48:47.167Z,1.77
2018-06-19T13:51:15.466Z,2.70
2018-06-19T13:53:44.394Z,1.90
2018-06-19T13:57:27.398Z,1.53
2018-06-19T13:59:55.590Z,1.57
2018-06-19T14:02:23.739Z,1.30
2018-06-19T14:04:53.171Z,1.47
2018-06-19T14:07:22.468Z,2.40
2018-06-19T14:10:01.956Z,2.13
2018-06-19T14:13:05.941Z,2.02
2018-06-19T14:15:38.282Z,1.77
2018-06-19T14:18:06.691Z,1.27
2018-06-19T14:20:34.814Z,1.47
2018-06-19T14:23:02.982Z,4.37
2018-06-19T14:25:31.057Z,2.07
2018-06-19T14:27:59.133Z,1.50
2018-06-19T14:30:27.355Z,1.23
2018-06-19T14:32:55.510Z,1.63
2018-06-19T14:35:23.615Z,1.67
2018-06-19T14:37:51.891Z,2.00
2018-06-19T14:40:20.231Z,1.50
2018-06-19T14:42:48.477Z,1.63
2018-06-19T14:45:16.540Z,1.10
2018-06-19T14:47:45.014Z,1.80
2018-06-19T14:50:13.539Z,1.23
2018-06-19T14:52:41.618Z,1.73
2018-06-19T14:55:10.577Z,1.70
2018-06-19T14:57:39.052Z,1.80
2018-06-19T15:00:08.524Z,1.20
2018-06-19T15:02:36.647Z,2.52
2018-06-19T15:05:05.279Z,1.55
2018-06-19T15:07:37.194Z,1.75
2018-06-19T15:10:07.277Z,1.80
2018-06-19T15:12:35.459Z,1.72
2018-06-19T15:15:03.592Z,2.17
2018-06-19T15:17:31.778Z,2.63
2018-06-19T15:20:00.266Z,2.80
2018-06-19T15:22:28.527Z,2.65
2018-06-19T15:24:56.649Z,1.13
2018-06-19T15:27:24.933Z,1.60
2018-06-19T15:29:53.795Z,3.27
2018-06-19T15:32:22.265Z,1.47
2018-06-19T15:34:50.486Z,1.27
2018-06-19T15:37:18.668Z,3.50
2018-06-19T15:39:46.870Z,3.77
2018-06-19T15:42:15.109Z,1.47
2018-06-19T15:44:43.248Z,3.13
2018-06-19T15:47:11.340Z,1.50
2018-06-19T15:49:39.520Z,1.57
2018-06-19T15:52:07.715Z,2.17
2018-06-19T15:54:35.967Z,1.45
2018-06-19T15:57:04.266Z,3.37
2018-06-19T15:59:32.378Z,4.40
2018-06-19T16:02:00.477Z,2.95
2018-06-19T16:04:28.632Z,1.73
2018-06-19T16:06:56.868Z,3.07
2018-06-19T16:09:25.000Z,1.87
2018-06-19T16:11:53.890Z,1.33
2018-06-19T16:14:21.987Z,1.50
2018-06-19T16:16:50.138Z,1.53
2018-06-19T16:19:18.290Z,2.67
2018-06-19T16:21:46.615Z,5.13
2018-06-19T16:24:14.906Z,1.87
2018-06-19T16:26:43.345Z,2.30
2018-06-19T16:29:11.434Z,1.40
2018-06-19T16:31:39.692Z,3.10
2018-06-19T16:34:07.806Z,2.17
2018-06-19T16:36:36.016Z,2.37
2018-06-19T16:39:06.731Z,1.83
2018-06-19T16:41:34.886Z,1.60
2018-06-19T16:44:05.082Z,1.62
2018-06-19T16:46:33.238Z,2.17
2018-06-19T16:49:01.405Z,2.33
2018-06-19T16:51:29.538Z,2.57
2018-06-19T16:53:57.868Z,2.43
2018-06-19T16:56:26.390Z,3.57
2018-06-19T16:58:54.686Z,4.43
2018-06-19T17:01:22.998Z,2.93
2018-06-19T17:03:51.107Z,2.40
2018-06-19T17:06:19.210Z,3.93
2018-06-19T17:08:47.359Z,2.87
2018-06-19T17:11:15.482Z,1.80
2018-06-19T17:13:43.590Z,2.50
2018-06-19T17:16:11.920Z,12.60
2018-06-19T17:18:40.446Z,17.50
2018-06-19T17:21:08.573Z,3.63
2018-06-19T17:23:36.674Z,2.30
2018-06-19T17:26:05.015Z,2.17
2018-06-19T17:28:33.156Z,6.53
2018-06-19T17:31:01.260Z,2.50
2018-06-19T17:33:29.567Z,3.27
2018-06-19T17:35:57.626Z,3.60
2018-06-19T17:38:25.815Z,2.33
2018-06-19T17:40:54.503Z,2.42
2018-06-19T17:43:22.809Z,11.33
2018-06-19T17:45:50.867Z,3.40
2018-06-19T17:48:19.033Z,4.63
2018-06-19T17:50:47.310Z,3.17
2018-06-19T17:53:15.569Z,5.03
2018-06-19T17:55:43.933Z,4.27
2018-06-19T17:58:12.106Z,1.98
2018-06-19T18:00:40.268Z,2.90
2018-06-19T18:03:08.379Z,4.30
2018-06-19T18:05:36.694Z,2.30
2018-06-19T18:08:05.081Z,3.45
2018-06-19T18:10:33.163Z,3.03
2018-06-19T18:13:01.428Z,2.60
2018-06-19T18:15:29.537Z,2.60
2018-06-19T18:17:57.610Z,2.90
2018-06-19T18:20:25.748Z,2.33
2018-06-19T18:22:54.551Z,2.60
2018-06-19T18:25:22.692Z,3.30
2018-06-19T18:27:50.875Z,2.23
2018-06-19T18:30:19.023Z,3.00
2018-06-19T18:32:47.367Z,3.50
2018-06-19T18:35:15.545Z,3.10
2018-06-19T18:37:43.706Z,3.80
2018-06-19T18:40:11.794Z,3.30
2018-06-19T18:42:41.051Z,3.10
2018-06-19T18:45:09.245Z,2.85
2018-06-19T18:47:37.391Z,3.73
2018-06-19T18:50:05.975Z,4.43
2018-06-19T18:52:34.282Z,3.40
2018-06-19T18:55:02.703Z,2.83
2018-06-19T18:57:30.818Z,4.30
2018-06-19T18:59:59.141Z,2.30
2018-06-19T19:02:27.223Z,4.13
2018-06-19T19:04:55.590Z,3.80
2018-06-19T19:15:54.039Z,3.50
2018-06-19T19:18:27.315Z,3.10
2018-06-19T19:20:56.559Z,2.60
2018-06-19T19:23:24.944Z,4.60
2018-06-19T19:25:53.067Z,4.30
2018-06-19T19:28:26.514Z,2.93
2018-06-19T19:30:55.050Z,4.80
2018-06-19T19:33:24.143Z,3.10
2018-06-19T19:35:52.449Z,2.73
2018-06-19T19:38:26.124Z,3.60
2018-06-19T19:40:54.943Z,2.93
2018-06-19T19:43:23.059Z,3.20
2018-06-19T19:45:51.201Z,3.47
2018-06-19T19:48:24.559Z,3.00
2018-06-19T19:50:53.010Z,5.50
2018-06-19T19:53:21.174Z,4.43
2018-06-19T19:55:54.831Z,2.80
2018-06-19T19:58:28.359Z,3.40
2018-06-19T20:00:56.619Z,8.17
2018-06-19T20:03:25.011Z,3.30
2018-06-19T20:05:53.279Z,4.23
2018-06-19T20:08:23.055Z,6.67
2018-06-19T20:10:52.027Z,4.50
2018-06-19T20:13:20.243Z,4.20
2018-06-19T20:15:49.006Z,3.47
2018-06-19T20:18:17.242Z,4.23
2018-06-19T20:20:45.474Z,3.07
2018-06-19T20:23:13.617Z,4.47
2018-06-19T20:25:41.679Z,5.12
2018-06-19T20:28:09.835Z,3.70
2018-06-19T20:30:38.167Z,4.60
2018-06-19T20:33:06.345Z,3.35
2018-06-19T20:35:34.483Z,3.03
2018-06-19T20:38:02.692Z,5.30
2018-06-19T20:40:30.808Z,3.50
2018-06-19T20:42:58.928Z,3.83
2018-06-19T20:45:27.071Z,4.03
2018-06-19T20:47:55.450Z,3.10
2018-06-19T20:50:23.547Z,3.57
2018-06-19T20:52:51.698Z,3.37
2018-06-19T20:55:19.779Z,3.47
2018-06-19T20:57:48.033Z,3.50
2018-06-19T21:00:16.098Z,3.73
2018-06-19T21:02:44.188Z,3.35
2018-06-19T21:05:12.251Z,4.43
2018-06-19T21:07:40.970Z,3.10
2018-06-19T21:10:09.669Z,3.07
2018-06-19T21:12:38.024Z,3.33
2018-06-19T21:15:06.115Z,2.72
2018-06-19T21:17:34.434Z,8.28
2018-06-19T21:20:02.538Z,3.80
2018-06-19T21:22:30.647Z,3.47
2018-06-19T21:24:58.798Z,3.63
2018-06-19T21:27:26.996Z,3.40
2018-06-19T21:29:55.496Z,3.67
2018-06-19T21:32:54.180Z,3.30
2018-06-19T21:35:22.308Z,3.30
2018-06-19T21:37:50.355Z,3.90
2018-06-19T21:40:18.708Z,3.80
2018-06-19T21:42:47.109Z,3.80
2018-06-19T21:45:15.264Z,3.80
2018-06-19T21:47:43.350Z,4.20
2018-06-19T21:50:12.434Z,3.60
2018-06-19T21:52:40.560Z,3.53
2018-06-19T21:55:08.916Z,3.30
2018-06-19T21:57:37.104Z,3.80
2018-06-19T22:00:05.694Z,3.98
2018-06-19T22:02:34.107Z,3.90
2018-06-19T22:05:03.912Z,4.57
2018-06-19T22:07:32.546Z,3.92
2018-06-19T22:10:00.612Z,3.90
2018-06-19T22:12:28.829Z,3.77
2018-06-19T22:14:56.980Z,12.37
2018-06-19T22:17:25.667Z,7.00
2018-06-19T22:19:53.842Z,4.67
2018-06-19T22:22:21.941Z,3.70
2018-06-19T22:24:50.060Z,3.80
2018-06-19T22:27:18.340Z,5.27
2018-06-19T22:29:46.475Z,3.90
2018-06-19T22:32:14.735Z,4.00
2018-06-19T22:34:43.031Z,4.07
2018-06-19T22:37:14.348Z,3.75
2018-06-19T22:39:45.264Z,4.70
2018-06-19T22:42:16.825Z,3.93
2018-06-19T22:44:45.335Z,3.77
2018-06-19T22:47:13.416Z,4.60
2018-06-19T22:49:41.482Z,4.10
2018-06-19T22:52:09.616Z,5.00
2018-06-19T22:54:37.702Z,4.90
2018-06-19T22:57:05.779Z,4.23
2018-06-19T22:59:34.237Z,4.33
2018-06-19T23:02:02.543Z,3.87
2018-06-19T23:04:31.110Z,4.50
2018-06-19T23:06:59.226Z,13.63
2018-06-19T23:09:27.360Z,5.03
2018-06-19T23:11:55.911Z,5.43
2018-06-19T23:14:24.099Z,4.70
2018-06-19T23:16:52.551Z,4.90
2018-06-19T23:19:20.636Z,5.30
2018-06-19T23:21:48.893Z,5.63
2018-06-19T23:24:24.247Z,4.80
2018-06-19T23:26:52.853Z,5.13
2018-06-19T23:29:21.247Z,12.70
2018-06-19T23:31:51.446Z,5.33
2018-06-19T23:34:19.519Z,5.40
2018-06-19T23:36:47.709Z,6.20
2018-06-19T23:39:17.776Z,5.17
2018-06-19T23:41:47.091Z,5.70
2018-06-19T23:44:16.449Z,4.60
2018-06-19T23:46:45.692Z,5.80
2018-06-19T23:49:15.948Z,4.90
2018-06-19T23:51:45.820Z,4.97
2018-06-19T23:54:16.056Z,5.23
2018-06-19T23:56:45.541Z,4.93
2018-06-19T23:59:15.789Z,5.03
